Time;durP1;ratioP1;P1;durP2;ratioP2;P2;SDS_P1;SDS_P2;PMS_P1;PMS_P2;Temp;Humidity;BMP_temperature;BMP_pressure;BME280_temperature;BME280_humidity;BME280_pressure;Samples;Min_cycle;Max_cycle;Signal;HPM_P1;HPM_P2
2022/06/28 00:04:55;;;;;;;0.10;0.10;;;;;;;15.01;100.00;101911.25;10454340;28;20066;-74
2022/06/28 00:09:56;;;;;;;0.10;0.10;;;;;;;15.07;100.00;101926.69;10455076;28;20479;-74
2022/06/28 00:20:15;;;;;;;0.10;0.10;;;;;;;15.06;100.00;101905.38;10454694;28;20025;-74
2022/06/28 00:25:16;;;;;;;0.10;0.10;;;;;;;15.05;100.00;101901.03;10452910;28;20480;-74
2022/06/28 00:30:16;;;;;;;0.10;0.10;;;;;;;15.06;100.00;101906.22;10454111;28;20072;-74
2022/06/28 00:35:16;;;;;;;0.10;0.10;;;;;;;15.06;100.00;101905.38;10453407;28;20433;-74
2022/06/28 00:40:17;;;;;;;0.10;0.10;;;;;;;15.05;100.00;101909.06;10453522;28;20029;-74
2022/06/28 00:45:17;;;;;;;0.10;0.10;;;;;;;15.05;100.00;101911.75;10452965;28;20174;-74
2022/06/28 00:50:18;;;;;;;0.10;0.10;;;;;;;15.07;100.00;101924.03;10453710;28;20403;-74
2022/06/28 00:55:18;;;;;;;0.10;0.10;;;;;;;15.09;100.00;101946.13;10451687;28;20426;-74
2022/06/28 01:00:19;;;;;;;0.10;0.10;;;;;;;15.09;100.00;101953.34;10451763;28;20031;-74
2022/06/28 01:05:20;;;;;;;0.10;0.10;;;;;;;15.08;100.00;101963.25;10450591;28;20036;-74
2022/06/28 01:10:20;;;;;;;0.10;0.10;;;;;;;15.08;100.00;101962.41;10451952;28;20060;-74
2022/06/28 01:15:21;;;;;;;0.10;0.10;;;;;;;15.10;100.00;101973.84;10451712;28;20038;-74
2022/06/28 01:20:22;;;;;;;0.10;0.10;;;;;;;15.07;100.00;101983.06;10452033;28;20028;-74
2022/06/28 01:25:23;;;;;;;0.10;0.10;;;;;;;15.07;100.00;101983.06;10450530;28;20530;-74
2022/06/28 01:30:26;;;;;;;0.10;0.10;;;;;;;15.06;100.00;101972.47;10451791;28;20474;-74
2022/06/28 01:35:26;;;;;;;0.10;0.10;;;;;;;15.05;100.00;101966.25;10449428;28;20507;-74
2022/06/28 01:40:26;;;;;;;0.10;0.10;;;;;;;15.03;100.00;101968.25;10451069;28;20028;-74
2022/06/28 01:45:28;;;;;;;0.10;0.10;;;;;;;14.98;100.00;101969.72;10450576;28;20380;-74
2022/06/28 01:50:29;;;;;;;0.10;0.10;;;;;;;14.94;100.00;101982.63;10451221;28;20036;-74
2022/06/28 01:55:29;;;;;;;0.10;0.10;;;;;;;14.91;100.00;101978.44;10451946;28;20043;-74
2022/06/28 02:00:30;;;;;;;0.10;0.10;;;;;;;14.88;100.00;101978.75;10451172;28;20107;-74
2022/06/28 02:05:31;;;;;;;0.10;0.10;;;;;;;14.88;100.00;101968.00;10449729;28;20021;-74
2022/06/28 02:10:32;;;;;;;0.10;0.10;;;;;;;14.89;100.00;101966.16;10450233;28;20053;-74
2022/06/28 02:15:33;;;;;;;0.10;0.10;;;;;;;14.89;100.00;101966.16;10449871;28;20490;-74
2022/06/28 02:20:33;;;;;;;0.10;0.10;;;;;;;14.86;100.00;101969.16;10448030;28;20480;-74
2022/06/28 02:25:34;;;;;;;0.10;0.10;;;;;;;14.83;100.00;101982.91;10448425;28;20024;-74
2022/06/28 02:30:34;;;;;;;0.10;0.10;;;;;;;14.81;100.00;101980.41;10450714;28;20035;-74
2022/06/28 02:40:53;;;;;;;0.10;0.10;;;;;;;14.80;100.00;101970.66;10449067;28;20256;-73
2022/06/28 02:45:54;;;;;;;0.10;0.10;;;;;;;14.78;100.00;101972.66;10449656;28;20021;-74
2022/06/28 02:50:54;;;;;;;0.10;0.10;;;;;;;14.78;100.00;101963.78;10450225;28;20028;-74
2022/06/28 02:55:54;;;;;;;0.10;0.10;;;;;;;14.77;100.00;101975.50;10454796;28;20259;-74
2022/06/28 03:00:55;;;;;;;0.00;0.00;;;;;;;14.76;100.00;101968.47;10449987;28;20017;-74
2022/06/28 03:05:55;;;;;;;0.13;0.13;;;;;;;14.77;100.00;101981.69;10447862;28;20024;-74
2022/06/28 03:10:56;;;;;;;0.10;0.10;;;;;;;14.83;100.00;101981.06;10448638;28;20784;-74
2022/06/28 03:15:56;;;;;;;0.10;0.10;;;;;;;14.85;100.00;101983.59;10446497;28;20024;-74
2022/06/28 03:20:56;;;;;;;0.13;0.13;;;;;;;14.87;100.00;101987.81;10449602;28;20025;-74
2022/06/28 03:25:56;;;;;;;0.10;0.10;;;;;;;14.91;100.00;101989.16;10448472;28;20900;-74
2022/06/28 03:30:57;;;;;;;0.10;0.10;;;;;;;15.01;100.00;101989.06;10449321;28;20036;-74
2022/06/28 03:35:57;;;;;;;0.10;0.10;;;;;;;15.10;100.00;101987.25;10456093;28;20025;-74
2022/06/28 03:40:57;;;;;;;0.10;0.10;;;;;;;15.30;100.00;101995.88;10457081;28;20035;-74
2022/06/28 03:45:58;;;;;;;0.13;0.13;;;;;;;16.25;100.00;102002.66;10456196;28;20367;-74
2022/06/28 03:50:58;;;;;;;0.10;0.10;;;;;;;17.55;100.00;102010.63;10456551;28;20040;-74
2022/06/28 03:55:59;;;;;;;0.10;0.10;;;;;;;18.40;100.00;102018.66;10455865;28;20025;-74
2022/06/28 04:00:59;;;;;;;0.10;0.10;;;;;;;18.81;100.00;102021.00;10445095;28;20467;-74
2022/06/28 04:06:00;;;;;;;0.10;0.10;;;;;;;18.38;100.00;102034.16;10448847;28;20033;-74
2022/06/28 04:11:16;;;;;;;0.10;0.10;;;;;;;19.63;100.00;102037.09;10442778;28;20490;-72
2022/06/28 04:16:18;;;;;;;0.10;0.10;;;;;;;20.91;100.00;102056.22;10452384;28;20025;-72
2022/06/28 04:21:19;;;;;;;0.00;0.00;;;;;;;20.47;100.00;102058.13;10455189;28;20017;-72
2022/06/28 04:26:19;;;;;;;0.10;0.10;;;;;;;19.58;100.00;102063.00;10452651;28;20108;-74
2022/06/28 04:31:20;;;;;;;0.10;0.10;;;;;;;18.73;100.00;102075.91;10454932;28;20474;-72
2022/06/28 04:36:20;;;;;;;0.10;0.10;;;;;;;18.07;100.00;102080.94;10453296;28;20029;-74
2022/06/28 04:41:24;;;;;;;0.10;0.10;;;;;;;17.63;100.00;102097.63;10451921;28;20028;-73
2022/06/28 04:46:24;;;;;;;0.00;0.00;;;;;;;17.31;100.00;102093.19;10452979;28;20271;-74
2022/06/28 04:51:24;;;;;;;0.10;0.10;;;;;;;17.17;100.00;102099.28;10454026;28;20029;-74
2022/06/28 04:56:25;;;;;;;0.00;0.00;;;;;;;17.17;100.00;102099.28;10453827;28;20498;-73
2022/06/28 05:01:25;;;;;;;0.00;0.00;;;;;;;17.15;100.00;102096.75;10452646;28;20023;-73
2022/06/28 05:06:25;;;;;;;0.10;0.10;;;;;;;17.16;100.00;102102.97;10452256;28;20278;-73
2022/06/28 05:11:26;;;;;;;0.10;0.10;;;;;;;17.16;100.00;102093.06;10452708;28;20032;-74
2022/06/28 05:16:27;;;;;;;0.10;0.10;;;;;;;17.06;100.00;102094.25;10452687;28;20278;-73
2022/06/28 05:21:27;;;;;;;0.10;0.10;;;;;;;16.93;100.00;102100.19;10449712;28;20245;-73
2022/06/28 05:26:27;;;;;;;0.10;0.10;;;;;;;16.89;100.00;102114.97;10451614;28;20094;-73
2022/06/28 05:31:28;;;;;;;0.10;0.10;;;;;;;16.90;100.00;102113.94;10451424;28;20040;-73
2022/06/28 05:36:28;;;;;;;0.10;0.10;;;;;;;16.92;100.00;102115.47;10451517;28;20021;-73
2022/06/28 05:41:31;;;;;;;0.10;0.10;;;;;;;16.99;100.00;102110.25;10451851;28;20025;-73
2022/06/28 05:46:32;;;;;;;0.10;0.10;;;;;;;18.04;100.00;102104.72;10451331;28;20016;-73
2022/06/28 05:51:33;;;;;;;0.10;0.10;;;;;;;20.56;100.00;102110.28;10451523;28;20095;-74
2022/06/28 05:56:35;;;;;;;0.00;0.00;;;;;;;22.21;100.00;102106.09;10450693;28;20555;-73
2022/06/28 06:01:35;;;;;;;0.00;0.00;;;;;;;23.99;96.22;102103.38;10450992;28;20259;-74
2022/06/28 06:06:36;;;;;;;0.10;0.10;;;;;;;24.34;88.39;102101.88;10450526;28;20016;-74
2022/06/28 06:11:36;;;;;;;0.10;0.10;;;;;;;25.53;88.17;102113.63;10450412;28;20098;-74
2022/06/28 06:16:37;;;;;;;0.10;0.10;;;;;;;26.31;80.04;102105.72;10450219;28;20104;-72
2022/06/28 06:21:37;;;;;;;0.00;0.00;;;;;;;26.87;74.87;102109.84;10450721;28;20029;-72
2022/06/28 06:26:37;;;;;;;0.10;0.10;;;;;;;27.61;73.79;102106.59;10457932;28;20383;-73
2022/06/28 06:31:38;;;;;;;0.10;0.10;;;;;;;27.94;70.77;102098.53;10450454;28;20263;-72
2022/06/28 06:36:39;;;;;;;;;;;;;;;28.51;69.20;102102.28;10449153;28;20045;-74
2022/06/28 06:41:40;;;;;;;0.10;0.10;;;;;;;29.14;67.76;102112.06;10448775;28;20383;-75
2022/06/28 06:46:40;;;;;;;0.10;0.10;;;;;;;28.76;67.42;102121.06;10476932;28;20024;-75
2022/06/28 06:51:44;;;;;;;0.00;0.00;;;;;;;28.61;66.15;102125.22;10492755;28;20040;-75
2022/06/28 06:56:46;;;;;;;0.10;0.10;;;;;;;28.36;63.15;102124.75;10462934;28;20017;-75
2022/06/28 07:01:46;;;;;;;0.10;0.10;;;;;;;28.38;57.87;102119.84;10450556;28;20025;-75
2022/06/28 07:06:47;;;;;;;0.10;0.10;;;;;;;28.31;57.74;102122.78;10481078;28;20036;-75
2022/06/28 07:11:47;;;;;;;0.10;0.10;;;;;;;28.69;61.27;102132.22;10497566;28;20025;-75
2022/06/28 07:16:47;;;;;;;0.10;0.10;;;;;;;29.11;58.27;102129.03;10482613;28;20021;-75
2022/06/28 07:21:48;;;;;;;;;;;;;;;29.74;57.86;102137.88;10498113;28;20395;-75
2022/06/28 07:26:49;;;;;;;0.10;0.10;;;;;;;29.30;50.55;102133.16;10490369;28;19912;-75
2022/06/28 07:31:50;;;;;;;;;;;;;;;29.41;55.58;102147.88;10499864;28;20111;-75
2022/06/28 07:36:50;;;;;;;0.00;0.00;;;;;;;29.57;51.46;102151.63;10497791;28;19999;-75
2022/06/28 07:41:50;;;;;;;;;;;;;;;29.55;47.64;102154.66;10496506;28;20460;-75
2022/06/28 07:46:51;;;;;;;0.10;0.10;;;;;;;29.32;51.21;102157.59;10487851;28;20019;-75
2022/06/28 07:57:10;;;;;;;0.10;0.10;;;;;;;29.50;45.95;102164.72;10489149;28;19913;-75
2022/06/28 08:02:10;;;;;;;0.10;0.10;;;;;;;29.38;49.19;102162.09;10498880;28;20475;-75
2022/06/28 08:07:11;;;;;;;0.10;0.10;;;;;;;28.87;47.11;102153.06;10488812;28;20036;-75
2022/06/28 08:12:11;;;;;;;0.07;0.07;;;;;;;27.14;52.47;102158.59;10486331;28;20282;-75
2022/06/28 08:17:11;;;;;;;0.10;0.10;;;;;;;27.57;54.17;102162.88;10464526;28;20701;-75
2022/06/28 08:22:12;;;;;;;0.03;0.03;;;;;;;28.29;55.54;102156.97;10497279;28;20032;-75
2022/06/28 08:27:13;;;;;;;0.00;0.00;;;;;;;28.73;50.67;102168.19;10479462;28;20024;-75
2022/06/28 08:32:13;;;;;;;0.10;0.10;;;;;;;27.95;50.30;102165.06;10454672;28;20081;-74
2022/06/28 08:37:14;;;;;;;0.10;0.10;;;;;;;28.29;51.00;102159.69;10460718;28;20032;-75
2022/06/28 08:42:19;;;;;;;0.10;0.10;;;;;;;27.50;52.48;102171.22;10457238;28;20387;-74
2022/06/28 08:47:23;;;;;;;0.00;0.00;;;;;;;27.25;52.58;102171.47;10458955;28;20256;-76
2022/06/28 08:52:24;;;;;;;0.10;0.10;;;;;;;27.38;54.94;102165.78;10454358;28;20028;-74
2022/06/28 08:57:25;;;;;;;0.00;0.00;;;;;;;27.60;54.24;102165.13;10458124;28;20431;-74
2022/06/28 09:02:25;;;;;;;0.00;0.00;;;;;;;27.30;52.68;102169.69;10451525;28;20021;-74
2022/06/28 09:07:26;;;;;;;0.10;0.10;;;;;;;27.37;55.74;102166.81;10460276;28;20095;-74
2022/06/28 09:12:27;;;;;;;0.10;0.10;;;;;;;27.35;52.15;102166.25;10454103;28;20568;-75
2022/06/28 09:17:30;;;;;;;0.05;0.05;;;;;;;27.11;55.89;102157.16;10463254;28;20559;-74
2022/06/28 09:22:35;;;;;;;0.00;0.00;;;;;;;27.43;55.48;102156.81;10448981;28;20020;-74
2022/06/28 09:27:37;;;;;;;0.10;0.10;;;;;;;27.72;53.36;102155.84;10465346;28;20104;-73
2022/06/28 09:32:38;;;;;;;0.10;0.10;;;;;;;27.80;53.09;102164.78;10452246;28;20498;-74
2022/06/28 09:43:11;;;;;;;0.00;0.00;;;;;;;26.30;54.74;102155.94;10452181;28;20132;-74
2022/06/28 09:48:17;;;;;;;0.10;0.10;;;;;;;25.56;54.08;102161.44;10448735;28;20028;-74
2022/06/28 09:53:20;;;;;;;0.00;0.00;;;;;;;25.00;57.73;102154.22;10450889;28;20028;-74
2022/06/28 09:58:22;;;;;;;0.10;0.10;;;;;;;24.93;60.03;102154.28;10448459;28;20025;-74
2022/06/28 10:03:22;;;;;;;0.00;0.00;;;;;;;25.19;59.90;102158.69;10449570;28;20025;-74
2022/06/28 10:08:24;;;;;;;0.00;0.00;;;;;;;24.59;56.84;102150.16;10450587;28;20040;-74
2022/06/28 10:18:45;;;;;;;0.00;0.00;;;;;;;23.80;61.78;102149.50;10451821;28;20029;-74
2022/06/28 10:23:46;;;;;;;0.10;0.10;;;;;;;25.06;60.06;102148.72;10448370;28;20509;-74
2022/06/28 10:29:04;;;;;;;0.00;0.00;;;;;;;24.88;55.62;102153.28;10448160;28;20129;-74
2022/06/28 10:34:08;;;;;;;0.03;0.03;;;;;;;24.45;60.29;102156.75;10449236;28;20021;-74
2022/06/28 10:39:08;;;;;;;0.10;0.10;;;;;;;25.11;57.78;102155.41;10449369;28;20035;-74
2022/06/28 10:44:10;;;;;;;0.00;0.00;;;;;;;25.46;55.32;102145.63;10447275;28;20499;-74
2022/06/28 10:49:12;;;;;;;0.00;0.00;;;;;;;25.78;57.58;102147.38;10449240;28;20142;-74
2022/06/28 10:54:16;;;;;;;0.00;0.00;;;;;;;26.22;55.78;102135.25;10448639;28;20160;-74
2022/06/28 10:59:18;;;;;;;0.10;0.10;;;;;;;26.21;54.50;102133.59;10448874;28;20028;-74
2022/06/28 11:04:18;;;;;;;0.03;0.03;;;;;;;25.88;56.54;102131.28;10448246;28;20286;-74
2022/06/28 11:09:56;;;;;;;0.03;0.03;;;;;;;25.06;57.17;102140.53;10448489;28;20116;-74
2022/06/28 11:15:01;;;;;;;0.00;0.00;;;;;;;24.15;59.67;102127.38;10448451;28;20029;-75
2022/06/28 11:20:14;;;;;;;0.00;0.00;;;;;;;23.69;61.90;102131.09;10452696;28;20021;-74
2022/06/28 11:25:15;;;;;;;0.00;0.00;;;;;;;24.49;64.97;102126.09;10450174;28;20360;-74
2022/06/28 11:30:16;;;;;;;0.10;0.10;;;;;;;25.01;55.16;102123.19;10451526;28;20025;-74
2022/06/28 11:35:19;;;;;;;0.10;0.10;;;;;;;25.37;58.75;102127.06;10449732;28;20025;-74
2022/06/28 11:40:22;;;;;;;0.10;0.10;;;;;;;25.19;51.39;102130.59;10452141;28;20025;-74
2022/06/28 11:45:22;;;;;;;0.00;0.00;;;;;;;24.23;57.26;102124.41;10451549;28;20017;-74
2022/06/28 11:50:23;;;;;;;0.00;0.00;;;;;;;23.83;58.73;102123.75;10450582;28;20017;-74
2022/06/28 11:55:38;;;;;;;0.10;0.10;;;;;;;23.41;60.04;102123.22;10456715;28;20421;-74
2022/06/28 12:00:39;;;;;;;0.00;0.00;;;;;;;23.81;64.50;102118.53;10459714;28;20017;-73
2022/06/28 12:05:40;;;;;;;0.00;0.00;;;;;;;24.54;58.76;102125.47;10456118;28;20033;-74
2022/06/28 12:10:40;;;;;;;0.00;0.00;;;;;;;25.00;57.65;102119.63;10456195;28;20443;-74
2022/06/28 12:15:41;;;;;;;0.00;0.00;;;;;;;25.19;54.07;102117.81;10461915;28;20021;-74
2022/06/28 12:20:55;;;;;;;0.10;0.10;;;;;;;25.14;53.98;102116.81;10458583;28;20100;-74
2022/06/28 12:26:00;;;;;;;0.00;0.00;;;;;;;24.99;54.33;102115.25;10462624;28;20072;-74
2022/06/28 12:31:00;;;;;;;0.10;0.10;;;;;;;24.92;58.67;102108.16;10457190;28;20029;-74
2022/06/28 12:36:01;;;;;;;0.00;0.00;;;;;;;24.12;53.60;102109.59;10457515;28;20016;-74
2022/06/28 12:41:01;;;;;;;0.00;0.00;;;;;;;23.53;62.76;102107.91;10459360;28;20091;-74
2022/06/28 12:46:01;;;;;;;0.00;0.00;;;;;;;23.90;60.24;102100.06;10461644;28;20294;-74
2022/06/28 12:51:02;;;;;;;0.00;0.00;;;;;;;24.29;57.68;102106.31;10454110;28;20017;-74
2022/06/28 12:56:03;;;;;;;0.00;0.00;;;;;;;24.77;59.18;102108.50;10457028;28;20108;-73
2022/06/28 13:01:03;;;;;;;0.00;0.00;;;;;;;24.51;51.48;102104.13;10453818;28;20494;-74
2022/06/28 13:06:05;;;;;;;0.00;0.00;;;;;;;24.53;54.48;102099.28;10452264;28;20013;-74
2022/06/28 13:11:05;;;;;;;0.00;0.00;;;;;;;23.92;55.71;102098.81;10451070;28;20017;-74
2022/06/28 13:16:06;;;;;;;0.00;0.00;;;;;;;23.34;61.58;102096.06;10452246;28;20159;-74
2022/06/28 13:21:06;;;;;;;0.00;0.00;;;;;;;23.09;58.37;102095.91;10450954;28;20379;-74
2022/06/28 13:26:06;;;;;;;0.00;0.00;;;;;;;23.50;57.01;102090.19;10447132;28;20025;-74
2022/06/28 13:31:07;;;;;;;0.00;0.00;;;;;;;23.57;56.44;102092.03;10451367;28;20045;-74
2022/06/28 13:36:08;;;;;;;0.00;0.00;;;;;;;23.40;57.41;102092.50;10450068;28;20104;-74
2022/06/28 13:41:10;;;;;;;0.00;0.00;;;;;;;23.36;58.73;102077.66;10452700;28;20032;-74
2022/06/28 13:46:10;;;;;;;0.00;0.00;;;;;;;23.56;54.61;102085.75;10449258;28;20488;-73
2022/06/28 13:51:11;;;;;;;0.00;0.00;;;;;;;23.54;55.73;102087.84;10451010;28;20024;-74
2022/06/28 13:56:11;;;;;;;0.10;0.10;;;;;;;23.64;63.44;102080.06;10449346;28;20017;-75
2022/06/28 14:01:11;;;;;;;0.00;0.00;;;;;;;23.99;52.47;102076.16;10449700;28;20541;-74
2022/06/28 14:06:12;;;;;;;0.00;0.00;;;;;;;24.19;56.32;102068.69;10444463;28;20029;-74
2022/06/28 14:11:12;;;;;;;0.00;0.00;;;;;;;24.34;53.28;102076.56;10444380;28;20105;-74
2022/06/28 14:16:13;;;;;;;0.00;0.00;;;;;;;24.42;52.58;102072.75;10442951;28;20384;-74
2022/06/28 14:21:13;;;;;;;0.00;0.00;;;;;;;23.88;54.70;102069.50;10448473;28;20438;-74
2022/06/28 14:26:15;;;;;;;0.00;0.00;;;;;;;23.47;57.98;102068.00;10449056;28;20291;-74
2022/06/28 14:31:15;;;;;;;0.00;0.00;;;;;;;23.47;57.06;102065.28;10442917;28;20028;-74
2022/06/28 14:36:15;;;;;;;0.00;0.00;;;;;;;23.38;57.14;102072.84;10447802;28;20488;-74
2022/06/28 14:41:16;;;;;;;0.00;0.00;;;;;;;23.21;57.40;102069.78;10444076;28;20270;-74
2022/06/28 14:46:16;;;;;;;0.00;0.00;;;;;;;22.96;55.41;102055.19;10441589;28;20021;-74
2022/06/28 14:51:16;;;;;;;0.00;0.00;;;;;;;22.71;56.26;102049.53;10443506;28;20017;-73
2022/06/28 14:56:17;;;;;;;0.00;0.00;;;;;;;22.72;58.75;102053.91;10448517;28;20017;-73
2022/06/28 15:01:17;;;;;;;0.00;0.00;;;;;;;23.15;57.97;102032.53;10449309;28;20463;-74
2022/06/28 15:06:19;;;;;;;0.00;0.00;;;;;;;23.43;57.50;102048.56;10447639;28;20028;-73
2022/06/28 15:11:19;;;;;;;0.00;0.00;;;;;;;23.07;57.29;102040.09;10449025;28;20033;-74
2022/06/28 15:16:20;;;;;;;0.00;0.00;;;;;;;22.82;62.01;102032.59;10448602;28;20537;-74
2022/06/28 15:31:58;;;;;;;0.00;0.00;;;;;;;23.15;54.47;102027.09;10455243;28;20419;-74
2022/06/28 15:36:59;;;;;;;0.00;0.00;;;;;;;22.84;58.50;102030.50;10456263;28;20021;-74
2022/06/28 15:42:01;;;;;;;0.10;0.10;;;;;;;22.60;57.04;102016.56;10456263;28;20095;-74
2022/06/28 15:47:01;;;;;;;0.00;0.00;;;;;;;22.58;58.20;102009.66;10453781;28;20029;-73
2022/06/28 15:52:01;;;;;;;0.00;0.00;;;;;;;22.98;59.29;102009.59;10456065;28;20021;-74
2022/06/28 15:57:02;;;;;;;0.10;0.10;;;;;;;23.09;58.25;102005.41;10454374;28;20025;-74
2022/06/28 16:02:02;;;;;;;0.00;0.00;;;;;;;22.83;56.76;101997.09;10455547;28;20429;-74
2022/06/28 16:07:03;;;;;;;0.00;0.00;;;;;;;22.68;58.26;102004.63;10456613;28;20283;-74
2022/06/28 16:12:51;;;;;;;0.00;0.00;;;;;;;22.50;59.47;101991.69;10457174;28;20025;-75
2022/06/28 16:17:39;;;;;;;0.00;0.00;;;;;;;22.10;61.46;101990.81;10456232;28;20035;-75
2022/06/28 16:22:41;;;;;;;0.00;0.00;;;;;;;22.28;62.31;101982.94;10456925;28;20025;-74
2022/06/28 16:27:42;;;;;;;0.00;0.00;;;;;;;22.63;57.93;101966.41;10463700;28;20064;-74
2022/06/28 16:32:42;;;;;;;0.00;0.00;;;;;;;22.85;55.77;101974.31;10455059;28;20032;-75
2022/06/28 16:37:45;;;;;;;0.00;0.00;;;;;;;22.80;54.02;101969.50;10454487;28;20399;-75
2022/06/28 16:42:46;;;;;;;0.00;0.00;;;;;;;22.64;53.22;101965.38;10454576;28;20024;-75
2022/06/28 16:47:47;;;;;;;0.05;0.05;;;;;;;22.61;53.55;101954.94;10451699;28;20458;-74
2022/06/28 16:52:47;;;;;;;0.10;0.10;;;;;;;22.63;57.99;101949.28;10455327;28;20021;-75
2022/06/28 16:57:47;;;;;;;0.00;0.00;;;;;;;22.57;56.00;101948.22;10483785;28;20032;-74
2022/06/28 17:02:50;;;;;;;0.00;0.00;;;;;;;22.45;56.46;101952.66;10496619;28;20263;-75
2022/06/28 17:07:50;;;;;;;0.10;0.10;;;;;;;22.38;59.43;101949.94;10496064;28;20565;-74
2022/06/28 17:12:50;;;;;;;0.00;0.00;;;;;;;22.27;63.43;101943.25;10496493;28;20028;-74
2022/06/28 17:17:51;;;;;;;0.10;0.10;;;;;;;22.16;60.21;101946.56;10495501;28;20034;-74
2022/06/28 17:22:52;;;;;;;0.03;0.03;;;;;;;21.92;62.43;101934.47;10494525;28;20102;-75
2022/06/28 17:27:52;;;;;;;0.00;0.00;;;;;;;21.78;64.64;101936.31;10485748;28;20133;-75
2022/06/28 17:32:52;;;;;;;0.00;0.00;;;;;;;21.72;62.92;101939.03;10495153;28;20025;-74
2022/06/28 17:37:53;;;;;;;0.00;0.00;;;;;;;21.67;67.75;101937.78;10494849;28;20036;-75
2022/06/28 17:42:53;;;;;;;0.10;0.10;;;;;;;21.55;65.92;101931.28;10493104;28;20032;-74
2022/06/28 17:47:53;;;;;;;0.00;0.00;;;;;;;21.47;63.00;101937.75;10494491;28;20020;-74
2022/06/28 17:52:54;;;;;;;0.10;0.10;;;;;;;21.42;67.90;101933.97;10494452;28;20020;-74
2022/06/28 17:57:54;;;;;;;0.10;0.10;;;;;;;21.36;72.54;101940.16;10453410;28;20047;-74
2022/06/28 18:02:54;;;;;;;0.10;0.10;;;;;;;21.25;76.08;101941.59;10453223;28;20029;-74
2022/06/28 18:07:55;;;;;;;0.10;0.10;;;;;;;21.12;76.04;101945.09;10452099;28;20562;-74
2022/06/28 18:12:55;;;;;;;0.00;0.00;;;;;;;21.04;84.70;101945.25;10452487;28;20045;-74
2022/06/28 18:17:55;;;;;;;0.07;0.07;;;;;;;20.88;85.33;101938.28;10450420;28;20029;-74
2022/06/28 18:22:56;;;;;;;0.00;0.00;;;;;;;20.76;79.62;101950.72;10452233;28;20031;-75
2022/06/28 18:28:03;;;;;;;0.08;0.08;;;;;;;20.66;81.03;101942.97;10482429;28;20266;-74
2022/06/28 18:33:03;;;;;;;0.00;0.00;;;;;;;20.55;85.49;101952.47;10493821;28;20024;-74
2022/06/28 18:38:04;;;;;;;0.00;0.00;;;;;;;20.37;95.99;101957.53;10493985;28;20059;-74
2022/06/28 18:43:05;;;;;;;0.10;0.10;;;;;;;20.16;99.81;101960.25;10492700;28;20472;-74
2022/06/28 18:48:05;;;;;;;0.00;0.00;;;;;;;19.92;100.00;101964.19;10491630;28;20039;-74
2022/06/28 18:53:07;;;;;;;0.00;0.00;;;;;;;19.73;100.00;101966.53;10493465;28;20017;-74
2022/06/28 18:58:08;;;;;;;0.00;0.00;;;;;;;19.60;100.00;101969.88;10483542;28;20298;-73
2022/06/28 19:03:08;;;;;;;0.10;0.10;;;;;;;19.49;100.00;101975.78;10494131;28;20029;-74
2022/06/28 19:08:09;;;;;;;0.10;0.10;;;;;;;19.35;97.04;101966.69;10499292;28;20020;-75
2022/06/28 19:13:11;;;;;;;0.10;0.10;;;;;;;19.22;90.74;101966.50;10501171;28;20017;-74
2022/06/28 19:18:11;;;;;;;0.00;0.00;;;;;;;19.08;93.09;101967.38;10498137;28;20483;-74
2022/06/28 19:23:11;;;;;;;0.10;0.10;;;;;;;18.93;99.83;101980.88;10500158;28;20024;-74
2022/06/28 19:28:12;;;;;;;0.10;0.10;;;;;;;18.77;97.38;101979.22;10467284;28;20029;-74
2022/06/28 19:33:12;;;;;;;0.10;0.10;;;;;;;18.62;96.01;101986.44;10458631;28;20017;-74
2022/06/28 19:38:12;;;;;;;0.00;0.00;;;;;;;18.42;94.71;101986.94;10458083;28;20037;-74
2022/06/28 19:43:13;;;;;;;0.10;0.10;;;;;;;18.20;92.66;101985.09;10458024;28;20036;-74
2022/06/28 19:48:13;;;;;;;0.10;0.10;;;;;;;18.02;92.19;101980.88;10457910;28;20017;-74
2022/06/28 19:53:14;;;;;;;0.10;0.10;;;;;;;17.87;92.07;101980.81;10458169;28;20043;-74
2022/06/28 19:58:14;;;;;;;0.10;0.10;;;;;;;17.77;92.34;101984.72;10483028;28;20488;-74
2022/06/28 20:03:15;;;;;;;0.00;0.00;;;;;;;17.59;94.33;101993.06;10499193;28;20070;-74
2022/06/28 20:08:15;;;;;;;0.10;0.10;;;;;;;17.35;95.40;101988.66;10497311;28;20271;-74
2022/06/28 20:13:16;;;;;;;0.10;0.10;;;;;;;17.24;95.11;101999.81;10482519;28;20029;-73
2022/06/28 20:18:16;;;;;;;0.00;0.00;;;;;;;17.15;95.60;101994.44;10455425;28;20281;-73
2022/06/28 20:23:16;;;;;;;0.10;0.10;;;;;;;16.92;99.01;102001.59;10454377;28;20032;-73
2022/06/28 20:28:17;;;;;;;0.10;0.10;;;;;;;16.58;100.00;101994.59;10455333;28;20025;-73
2022/06/28 20:33:17;;;;;;;0.10;0.10;;;;;;;16.41;100.00;101995.63;10454146;28;20439;-73
2022/06/28 20:38:17;;;;;;;0.00;0.00;;;;;;;16.31;100.00;101993.06;10453558;28;20313;-72
2022/06/28 20:43:18;;;;;;;0.10;0.10;;;;;;;16.32;100.00;101989.41;10452905;28;20044;-73
2022/06/28 20:48:18;;;;;;;0.08;0.08;;;;;;;16.36;98.95;101988.03;10453623;28;20055;-72
2022/06/28 20:53:18;;;;;;;0.08;0.08;;;;;;;16.23;100.00;101983.19;10453990;28;20024;-73
2022/06/28 20:58:19;;;;;;;0.20;0.20;;;;;;;16.01;100.00;101986.53;10452415;28;20024;-72
2022/06/28 21:03:20;;;;;;;0.10;0.10;;;;;;;15.81;100.00;101986.81;10453316;28;20036;-72
2022/06/28 21:08:20;;;;;;;0.10;0.10;;;;;;;15.65;100.00;101991.28;10452442;28;20033;-72
2022/06/28 21:13:32;;;;;;;0.10;0.10;;;;;;;15.47;100.00;101996.78;10456304;28;20021;-76
2022/06/28 21:18:32;;;;;;;0.10;0.10;;;;;;;15.20;100.00;101990.66;10469342;28;20028;-72
2022/06/28 21:23:33;;;;;;;0.10;0.10;;;;;;;15.06;100.00;101996.63;10452117;28;20024;-71
2022/06/28 21:28:33;;;;;;;0.10;0.10;;;;;;;14.96;100.00;101996.75;10450737;28;20259;-72
2022/06/28 21:33:34;;;;;;;0.10;0.10;;;;;;;14.90;100.00;102003.59;10450849;28;20017;-72
2022/06/28 21:38:35;;;;;;;0.10;0.10;;;;;;;14.84;100.00;101995.34;10454293;28;20377;-72
2022/06/28 21:43:36;;;;;;;0.08;0.08;;;;;;;14.71;100.00;101995.75;10453433;28;20024;-72
2022/06/28 21:48:36;;;;;;;0.10;0.10;;;;;;;14.54;100.00;102013.56;10450370;28;20031;-72
2022/06/28 21:53:37;;;;;;;0.10;0.10;;;;;;;14.35;100.00;102017.25;10453033;28;20386;-72
2022/06/28 21:58:37;;;;;;;0.05;0.05;;;;;;;14.24;100.00;102012.94;10454522;28;20017;-72
2022/06/28 22:03:39;;;;;;;0.10;0.10;;;;;;;14.22;100.00;102011.41;10451245;28;20028;-72
2022/06/28 22:08:40;;;;;;;0.10;0.10;;;;;;;14.20;100.00;102008.06;10450295;28;20025;-72
2022/06/28 22:13:40;;;;;;;0.10;0.10;;;;;;;14.13;100.00;102007.00;10450904;28;20427;-71
2022/06/28 22:18:40;;;;;;;0.10;0.10;;;;;;;14.08;100.00;101998.56;10451420;28;20027;-72
2022/06/28 22:23:40;;;;;;;0.10;0.10;;;;;;;13.97;100.00;102005.00;10448621;28;20033;-72
2022/06/28 22:28:41;;;;;;;0.10;0.10;;;;;;;13.89;100.00;102012.97;10453921;28;20036;-72
2022/06/28 22:33:41;;;;;;;0.10;0.10;;;;;;;13.85;100.00;102011.59;10450137;28;20025;-72
2022/06/28 22:38:41;;;;;;;0.10;0.10;;;;;;;13.83;100.00;102011.72;10449545;28;20028;-72
2022/06/28 22:43:42;;;;;;;0.10;0.10;;;;;;;13.83;100.00;102022.44;10450169;28;20072;-72
2022/06/28 22:48:42;;;;;;;0.10;0.10;;;;;;;13.86;100.00;102013.25;10450669;28;20029;-72
2022/06/28 22:53:43;;;;;;;0.10;0.10;;;;;;;13.87;100.00;102013.09;10449334;28;20017;-72
2022/06/28 22:58:43;;;;;;;0.10;0.10;;;;;;;13.84;100.00;102008.03;10449751;28;20402;-71
2022/06/28 23:03:44;;;;;;;0.10;0.10;;;;;;;13.85;100.00;102007.06;10449712;28;20035;-71
2022/06/28 23:08:45;;;;;;;0.10;0.10;;;;;;;13.85;100.00;102016.94;10450170;28;20492;-72
2022/06/28 23:13:45;;;;;;;0.10;0.10;;;;;;;13.85;100.00;102008.91;10448997;28;20021;-72
2022/06/28 23:18:45;;;;;;;0.00;0.00;;;;;;;13.79;100.00;101996.97;10450163;28;20057;-71
2022/06/28 23:23:45;;;;;;;0.10;0.10;;;;;;;13.72;100.00;101993.19;10448828;28;20064;-72
2022/06/28 23:28:46;;;;;;;0.10;0.10;;;;;;;13.72;100.00;102001.22;10449333;28;20107;-72
2022/06/28 23:33:46;;;;;;;0.10;0.10;;;;;;;13.69;100.00;101980.94;10449020;28;20025;-71
2022/06/28 23:38:46;;;;;;;0.10;0.10;;;;;;;13.69;100.00;101972.09;10449454;28;20031;-72